createdAt,value
2014-07-01T07:26:33.532Z,48.97
2014-07-01T07:27:38.518Z,48.75
2014-07-01T07:28:43.208Z,48.9
2014-07-01T07:29:47.882Z,48.51
2014-07-01T07:30:52.572Z,49.2
2014-07-01T07:31:57.260Z,50.08
2014-07-01T07:33:01.950Z,48.68
2014-07-01T07:34:06.640Z,48
2014-07-01T07:35:10.627Z,46.37
2014-07-01T07:36:15.316Z,44.83
2014-07-01T07:37:20.006Z,44.53
2014-07-01T07:38:24.992Z,43.81
2014-07-01T07:39:29.682Z,43.31
2014-07-01T07:40:34.371Z,43.76
2014-07-01T07:41:39.062Z,44.08
2014-07-01T07:42:43.375Z,43.71
2014-07-01T07:43:48.096Z,44.08
2014-07-01T07:44:52.785Z,43.82
2014-07-01T07:45:57.476Z,43.8
2014-07-01T07:47:02.446Z,44.68
2014-07-01T07:48:07.136Z,45.82
2014-07-01T07:49:12.123Z,45.25
2014-07-01T07:50:16.812Z,45.89
2014-07-01T07:51:21.502Z,46.21
2014-07-01T07:52:26.175Z,46.21
2014-07-01T07:53:30.865Z,46.72
2014-07-01T07:54:35.554Z,46.28
2014-07-01T07:55:40.244Z,46.07
2014-07-01T07:56:44.933Z,47.03
2014-07-01T07:57:49.623Z,47.09
2014-07-01T07:58:54.312Z,47
2014-07-01T07:59:58.986Z,47.08
2014-07-01T08:01:03.676Z,46.77
2014-07-01T08:02:08.365Z,46.47
2014-07-01T08:03:13.353Z,46.55
2014-07-01T08:04:18.042Z,47.26
2014-07-01T08:05:22.716Z,46.49
2014-07-01T08:06:27.406Z,45.88
2014-07-01T08:07:32.095Z,45.65
2014-07-01T08:08:37.081Z,45.88
2014-07-01T08:09:41.770Z,45.6
2014-07-01T08:10:46.459Z,45.2
2014-07-01T08:11:51.149Z,45.57
2014-07-01T08:12:56.120Z,44.95
2014-07-01T08:14:00.809Z,44.98
2014-07-01T08:15:05.499Z,44.28
2014-07-01T08:16:10.188Z,44.68
2014-07-01T08:17:14.864Z,44.03
2014-07-01T08:18:19.849Z,42.39
2014-07-01T08:19:24.837Z,42.66
2014-07-01T08:20:29.823Z,43.28
2014-07-01T08:21:34.513Z,43.49
2014-07-01T08:22:39.187Z,46.42
2014-07-01T08:23:43.876Z,45.7
2014-07-01T08:24:48.566Z,45.49
2014-07-01T08:25:53.254Z,45.32
2014-07-01T08:26:58.240Z,44.31
2014-07-01T08:28:02.914Z,45.55
2014-07-01T08:29:07.916Z,44.22
2014-07-01T08:30:12.590Z,43.58
2014-07-01T08:31:17.577Z,44.07
2014-07-01T08:32:22.268Z,43.44
2014-07-01T08:33:26.958Z,42.08
2014-07-01T08:34:31.646Z,42.05
2014-07-01T08:35:36.336Z,42.59
2014-07-01T08:36:41.009Z,43.25
2014-07-01T08:37:46.293Z,43.12
2014-07-01T08:38:50.982Z,43.01
2014-07-01T08:39:55.673Z,41.02
2014-07-01T08:41:00.658Z,41.08
2014-07-01T08:42:05.644Z,40.74
2014-07-01T08:43:10.334Z,40.71
2014-07-01T08:44:15.007Z,40.03
2014-07-01T08:45:19.697Z,40.06
2014-07-01T08:46:24.389Z,38.77
2014-07-01T08:47:29.077Z,40.7
2014-07-01T08:48:34.049Z,40.73
2014-07-01T08:49:38.738Z,40.75
2014-07-01T08:50:44.022Z,40.68
2014-07-01T08:51:48.711Z,41.1
2014-07-01T08:52:53.697Z,41
2014-07-01T08:53:58.387Z,42.13
2014-07-01T08:55:03.669Z,41.76
2014-07-01T08:56:08.359Z,41.35
2014-07-01T08:57:13.048Z,40.92
2014-07-01T08:58:17.723Z,40.96
2014-07-01T08:59:22.709Z,42.09
2014-07-01T09:00:27.398Z,41.75
2014-07-01T09:01:32.385Z,41.3
2014-07-01T09:02:37.074Z,40.35
2014-07-01T09:03:42.045Z,40.71
2014-07-01T09:04:46.735Z,40.75
2014-07-01T09:05:50.736Z,40.65
2014-07-01T09:06:55.427Z,40.65
2014-07-01T09:08:00.100Z,41.04
2014-07-01T09:09:05.089Z,41.21
2014-07-01T09:10:09.778Z,40.82
2014-07-01T09:11:14.764Z,40.81
2014-07-01T09:12:19.453Z,40.04
2014-07-01T09:13:24.440Z,40.34
2014-07-01T09:14:29.114Z,39.66
2014-07-01T09:15:33.803Z,42.24
2014-07-01T09:16:38.493Z,42.3
2014-07-01T09:17:43.182Z,41.08
2014-07-01T09:18:48.153Z,40.55
2014-07-01T09:19:52.841Z,39.96
2014-07-01T09:20:57.532Z,39.59
2014-07-01T09:22:02.517Z,38.98
2014-07-01T09:23:07.207Z,38.26
2014-07-01T09:24:12.194Z,37.96
2014-07-01T09:25:16.869Z,36.99
2014-07-01T09:26:21.560Z,38.05
2014-07-01T09:27:26.546Z,38.18
2014-07-01T09:28:31.531Z,38.76
2014-07-01T09:29:36.518Z,39.35
2014-07-01T09:30:41.207Z,39.51
2014-07-01T09:31:46.194Z,38.19
2014-07-01T09:32:50.883Z,37.87
2014-07-01T09:33:55.869Z,37.97
2014-07-01T09:35:00.558Z,37.81
2014-07-01T09:36:05.247Z,37.3
2014-07-01T09:37:10.234Z,37.13
2014-07-01T09:38:14.923Z,37.59
2014-07-01T09:39:19.617Z,35.73
2014-07-01T09:40:24.308Z,37.36
2014-07-01T09:41:28.998Z,35.38
2014-07-01T09:42:33.687Z,36.43
2014-07-01T09:43:38.361Z,36.6
2014-07-01T09:44:43.347Z,37.25
2014-07-01T09:45:48.065Z,36.93
2014-07-01T09:46:52.794Z,37.33
2014-07-01T09:47:57.821Z,38.08
2014-07-01T09:49:02.848Z,39.92
2014-07-01T09:50:07.882Z,39.64
2014-07-01T09:51:12.590Z,38.66
2014-07-01T09:52:17.297Z,38.18
2014-07-01T09:53:22.000Z,39.39
2014-07-01T09:54:26.706Z,39.7
2014-07-01T09:55:31.409Z,39.39
2014-07-01T09:56:36.105Z,39.05
2014-07-01T09:57:40.784Z,39.04
2014-07-01T09:58:45.480Z,38.89
2014-07-01T09:59:50.472Z,39.5
2014-07-01T10:00:55.165Z,39.56
2014-07-01T10:02:00.154Z,39.17
2014-07-01T10:03:04.846Z,38.83
2014-07-01T10:04:09.537Z,39.76
2014-07-01T10:05:14.229Z,38.71
2014-07-01T10:06:18.919Z,38.66
2014-07-01T10:07:23.609Z,38.66
2014-07-01T10:08:28.315Z,39.54
2014-07-01T10:09:33.302Z,39.36
2014-07-01T10:10:37.992Z,39.05
2014-07-01T10:11:42.681Z,39.27
2014-07-01T10:12:47.372Z,38.93
2014-07-01T10:13:52.062Z,38.1
2014-07-01T10:14:57.049Z,38.6
2014-07-01T10:16:01.738Z,37.1
2014-07-01T10:17:06.429Z,36.86
2014-07-01T10:18:11.117Z,37.27
2014-07-01T10:19:15.823Z,36.79
2014-07-01T10:20:20.512Z,36.82
2014-07-01T10:21:25.201Z,35.8
2014-07-01T10:22:29.892Z,35.74
2014-07-01T10:23:34.581Z,36.09
2014-07-01T10:24:39.568Z,36.27
2014-07-01T10:25:44.241Z,36.42
2014-07-01T10:26:48.932Z,36.86
2014-07-01T10:27:53.621Z,36.21
2014-07-01T10:28:58.608Z,36.26
2014-07-01T10:30:03.296Z,36.24
2014-07-01T10:31:07.987Z,35.46
2014-07-01T10:32:12.675Z,35.94
2014-07-01T10:33:17.366Z,35.29
2014-07-01T10:34:22.054Z,35.99
2014-07-01T10:35:26.728Z,34.75
2014-07-01T10:36:31.419Z,35.81
2014-07-01T10:37:36.451Z,33.86
2014-07-01T10:38:41.437Z,35.33
2014-07-01T10:39:46.128Z,35.17
2014-07-01T10:40:50.817Z,34.84
2014-07-01T10:41:55.507Z,34.78
2014-07-01T10:43:00.197Z,34.98
2014-07-01T10:44:05.183Z,34.7
2014-07-01T10:45:10.170Z,35.26
2014-07-01T10:46:14.859Z,35.03
2014-07-01T10:47:19.548Z,35.31
2014-07-01T10:48:24.539Z,35.69
2014-07-01T10:49:29.230Z,35.38
2014-07-01T10:50:33.918Z,34.87
2014-07-01T10:51:38.609Z,34.16
2014-07-01T10:52:43.594Z,33.5
2014-07-01T10:53:48.284Z,32.56
2014-07-01T10:54:52.974Z,32.56
2014-07-01T10:55:57.664Z,33.19
2014-07-01T10:57:02.353Z,34.21
2014-07-01T10:58:07.043Z,33.38
2014-07-01T10:59:11.732Z,32.3
2014-07-01T11:00:16.406Z,32.08
2014-07-01T11:01:21.096Z,33.73
2014-07-01T11:02:25.786Z,32.81
2014-07-01T11:03:30.771Z,32.68
2014-07-01T11:04:35.461Z,32.94
2014-07-01T11:05:40.151Z,32.28
2014-07-01T11:06:45.138Z,32.71
2014-07-01T11:07:49.827Z,31.01
2014-07-01T11:08:54.532Z,31.5
2014-07-01T11:09:59.222Z,31.53
2014-07-01T11:11:03.912Z,32
2014-07-01T11:12:08.601Z,32.1
2014-07-01T11:13:13.587Z,32.61
2014-07-01T11:14:18.278Z,33.51
2014-07-01T11:15:22.967Z,33.64
2014-07-01T11:16:27.657Z,33.37
2014-07-01T11:17:32.346Z,34.11
2014-07-01T11:18:37.036Z,35
2014-07-01T11:19:41.724Z,34.48
2014-07-01T11:20:46.712Z,34.88
2014-07-01T11:21:51.698Z,35.35
2014-07-01T11:22:56.372Z,35.29
2014-07-01T11:24:01.359Z,35.02
2014-07-01T11:25:06.049Z,35.35
2014-07-01T11:26:11.034Z,34.86
2014-07-01T11:27:15.724Z,35.64
2014-07-01T11:28:20.414Z,35.7
2014-07-01T11:29:25.087Z,36.01
2014-07-01T11:30:29.778Z,36.94
2014-07-01T11:31:34.467Z,35.43
2014-07-01T11:32:39.157Z,34.86
2014-07-01T11:33:43.846Z,34.7
2014-07-01T11:34:47.848Z,35.36
2014-07-01T11:35:52.833Z,35.49
2014-07-01T11:36:57.523Z,36.67
2014-07-01T11:38:01.525Z,35.83
2014-07-01T11:39:05.528Z,35.32
2014-07-01T11:40:10.233Z,36.94
2014-07-01T11:41:14.923Z,36.58
2014-07-01T11:42:19.596Z,36.12
2014-07-01T11:43:24.582Z,35.76
2014-07-01T11:44:29.569Z,35.33
2014-07-01T11:45:34.258Z,35.37
2014-07-01T11:46:38.948Z,34.94
2014-07-01T11:47:43.935Z,34.52
2014-07-01T11:48:48.624Z,35.78
2014-07-01T11:49:53.314Z,35.28
2014-07-01T11:50:58.003Z,34.81
2014-07-01T11:52:02.694Z,35.76
2014-07-01T11:53:07.680Z,35.89
2014-07-01T11:54:12.368Z,34.94
2014-07-01T11:55:17.059Z,35.79
2014-07-01T11:56:22.044Z,35.07
2014-07-01T11:57:26.735Z,34.46
2014-07-01T11:58:31.423Z,34.78
2014-07-01T11:59:36.410Z,33.73
2014-07-01T12:00:41.397Z,33.92
2014-07-01T12:01:46.383Z,34.55
2014-07-01T12:02:51.370Z,33.44
2014-07-01T12:03:56.059Z,34.51
2014-07-01T12:05:00.750Z,34.89
2014-07-01T12:06:05.438Z,34.04
2014-07-01T12:07:10.113Z,34.12
2014-07-01T12:08:14.803Z,33.4
2014-07-01T12:09:19.492Z,34.84
2014-07-01T12:10:24.479Z,34.6
2014-07-01T12:11:29.168Z,35.55
2014-07-01T12:12:33.841Z,34.68
2014-07-01T12:13:37.859Z,34.36
2014-07-01T12:14:42.845Z,33.59
2014-07-01T12:15:47.534Z,33.99
2014-07-01T12:16:52.521Z,33.59
2014-07-01T12:17:57.211Z,33.66
2014-07-01T12:19:01.509Z,32.41
2014-07-01T12:20:06.497Z,32.88
2014-07-01T12:21:11.185Z,32.4
2014-07-01T12:22:15.875Z,32.89
2014-07-01T12:23:20.564Z,33.51
2014-07-01T12:24:25.551Z,33.21
2014-07-01T12:25:30.241Z,32.98
2014-07-01T12:26:34.930Z,33.42
2014-07-01T12:27:39.620Z,34.06
2014-07-01T12:28:44.309Z,33.21
2014-07-01T12:29:48.999Z,32.44
2014-07-01T12:30:53.688Z,34.12
2014-07-01T12:31:58.675Z,34.16
2014-07-01T12:33:03.661Z,34.81
2014-07-01T12:34:08.351Z,34.08
2014-07-01T12:35:13.031Z,34.42
2014-07-01T12:36:17.737Z,33.8
2014-07-01T12:37:22.723Z,32.73
2014-07-01T12:38:27.412Z,33.29
2014-07-01T12:39:32.102Z,32.41
2014-07-01T12:40:36.791Z,32.77
2014-07-01T12:41:41.481Z,33.42
2014-07-01T12:42:46.170Z,33.57
2014-07-01T12:43:51.141Z,32.87
2014-07-01T12:44:55.831Z,33.1
2014-07-01T12:46:00.520Z,33.26
2014-07-01T12:47:05.210Z,32.86
2014-07-01T12:48:09.899Z,32.78
2014-07-01T12:49:14.901Z,32.25
2014-07-01T12:50:19.591Z,32.45
2014-07-01T12:51:24.577Z,32.25
2014-07-01T12:52:29.267Z,31.92
2014-07-01T12:53:33.956Z,31.44
2014-07-01T12:54:38.646Z,31.02
2014-07-01T12:55:43.335Z,31.58
2014-07-01T12:56:48.024Z,31.21
2014-07-01T12:57:52.714Z,30.82
2014-07-01T12:58:57.700Z,31.1
2014-07-01T13:00:02.390Z,31.98
2014-07-01T13:01:07.079Z,31.43
2014-07-01T13:02:11.769Z,31.75
2014-07-01T13:03:16.458Z,30.6
2014-07-01T13:04:20.445Z,31.09
2014-07-01T13:05:25.431Z,31.29
2014-07-01T13:06:30.121Z,30.51
2014-07-01T13:07:34.810Z,31.25
2014-07-01T13:08:39.797Z,30.75
2014-07-01T13:09:44.487Z,30.62
2014-07-01T13:10:49.176Z,30.82
2014-07-01T13:11:54.163Z,30.24
2014-07-01T13:12:58.852Z,30.49
2014-07-01T13:14:03.542Z,31.21
2014-07-01T13:15:08.528Z,31.39
2014-07-01T13:16:13.515Z,31.96
2014-07-01T13:17:18.204Z,32.17
2014-07-01T13:18:22.894Z,32.27
2014-07-01T13:19:27.880Z,32.3
2014-07-01T13:20:32.571Z,32.51
2014-07-01T13:21:37.243Z,32.57
2014-07-01T13:22:41.934Z,32.21
2014-07-01T13:23:46.622Z,31.93
2014-07-01T13:24:51.344Z,31.91
2014-07-01T13:25:56.034Z,32.04
2014-07-01T13:27:00.723Z,32.39
2014-07-01T13:28:05.414Z,32.2
2014-07-01T13:29:10.102Z,31.41
2014-07-01T13:30:14.792Z,32.03
2014-07-01T13:31:19.482Z,32.53
2014-07-01T13:32:24.171Z,33.17
2014-07-01T13:33:28.860Z,32.77
2014-07-01T13:34:33.551Z,32.01
2014-07-01T13:35:38.240Z,31.35
2014-07-01T13:36:42.242Z,31.22
2014-07-01T13:37:46.947Z,31.47
2014-07-01T13:38:51.637Z,31.76
2014-07-01T13:39:56.325Z,31.83
2014-07-01T13:41:01.015Z,31.74
2014-07-01T13:42:05.705Z,32
2014-07-01T13:43:10.691Z,31.87
2014-07-01T13:44:15.381Z,32.29
2014-07-01T13:45:20.087Z,32.22
2014-07-01T13:46:24.778Z,30.53
2014-07-01T13:47:29.467Z,31.24
2014-07-01T13:48:34.157Z,31.15
2014-07-01T13:49:38.845Z,30.31
2014-07-01T13:50:43.566Z,30.22
2014-07-01T13:51:48.256Z,30.55
2014-07-01T13:52:52.945Z,30.82
2014-07-01T13:53:57.634Z,31.2
2014-07-01T13:55:02.323Z,31.08
2014-07-01T13:56:07.013Z,30.73
2014-07-01T13:57:12.015Z,31.93
2014-07-01T13:58:16.705Z,31.97
2014-07-01T13:59:21.396Z,31.36
2014-07-01T14:00:26.085Z,31.22
2014-07-01T14:01:30.776Z,30.59
2014-07-01T14:02:35.481Z,31.44
2014-07-01T14:03:40.169Z,31.24
2014-07-01T14:04:44.859Z,31.68
2014-07-01T14:05:49.549Z,31.62
2014-07-01T14:06:54.551Z,31.91
2014-07-01T14:07:59.272Z,31.38
2014-07-01T14:09:04.257Z,31.24
2014-07-01T14:10:08.948Z,31.63
2014-07-01T14:11:13.934Z,32.44
2014-07-01T14:12:18.623Z,31.38
2014-07-01T14:13:23.328Z,31.71
2014-07-01T14:14:28.019Z,31.67
2014-07-01T14:15:33.006Z,31.15
2014-07-01T14:16:37.694Z,31.51
2014-07-01T14:17:42.696Z,32.35
2014-07-01T14:18:46.730Z,33.61
2014-07-01T14:19:51.716Z,33.06
2014-07-01T14:20:56.421Z,32.22
2014-07-01T14:22:01.110Z,32.68
2014-07-01T14:23:05.801Z,33.6
2014-07-01T14:24:10.505Z,33.76
2014-07-01T14:25:15.197Z,34.42
2014-07-01T14:26:19.886Z,34.24
2014-07-01T14:27:24.888Z,33.85
2014-07-01T14:28:29.579Z,34.09
2014-07-01T14:29:34.267Z,33.38
2014-07-01T14:30:38.958Z,32.1
2014-07-01T14:31:43.646Z,31.41
2014-07-01T14:32:48.352Z,31.2
2014-07-01T14:33:53.042Z,32.12
2014-07-01T14:34:57.731Z,31.11
2014-07-01T14:36:02.435Z,30.72
2014-07-01T14:37:07.126Z,30.65
2014-07-01T14:38:12.112Z,30.52
2014-07-01T14:39:16.817Z,31.35
2014-07-01T14:40:21.507Z,30.48
2014-07-01T14:41:26.196Z,31.23
2014-07-01T14:42:30.902Z,31.21
2014-07-01T14:43:35.591Z,31.07
2014-07-01T14:44:40.297Z,31.27
2014-07-01T14:45:44.986Z,31.92
2014-07-01T14:46:49.675Z,32.17
2014-07-01T14:47:54.380Z,31.74
2014-07-01T14:48:59.368Z,31.49
2014-07-01T14:50:04.073Z,32.14
2014-07-01T14:51:08.761Z,31.41
2014-07-01T14:52:13.452Z,31.41
2014-07-01T14:53:17.454Z,32.58
2014-07-01T14:54:22.440Z,33.38
2014-07-01T14:55:27.145Z,33.17
2014-07-01T14:56:31.835Z,33.08
2014-07-01T14:57:36.524Z,32.85
2014-07-01T14:58:41.214Z,32.5
2014-07-01T14:59:45.903Z,31.5
2014-07-01T15:00:50.593Z,31.72
2014-07-01T15:01:55.282Z,32.34
2014-07-01T15:02:59.987Z,31.64
2014-07-01T15:04:04.677Z,31.64
2014-07-01T15:05:09.366Z,31.49
2014-07-01T15:06:14.056Z,31.49
2014-07-01T15:07:19.058Z,31.49
2014-07-01T15:08:23.747Z,31.78
2014-07-01T15:09:28.452Z,32.13
2014-07-01T15:10:33.143Z,32.72
2014-07-01T15:11:37.848Z,32.23
2014-07-01T15:12:42.538Z,31.29
2014-07-01T15:13:47.227Z,31.03
2014-07-01T15:14:51.933Z,32.35
2014-07-01T15:15:56.622Z,32.02
2014-07-01T15:17:01.608Z,31.99
2014-07-01T15:18:06.299Z,31.79
2014-07-01T15:19:10.988Z,31.24
2014-07-01T15:20:15.692Z,31.67
2014-07-01T15:21:20.382Z,31.88
2014-07-01T15:22:25.368Z,31.34
2014-07-01T15:23:30.059Z,31.21
2014-07-01T15:24:34.764Z,31
2014-07-01T15:25:39.453Z,31.75
2014-07-01T15:26:44.143Z,31.38
2014-07-01T15:27:48.832Z,30.98
2014-07-01T15:28:53.522Z,31.21
2014-07-01T15:29:58.211Z,31.71
2014-07-01T15:31:02.901Z,32.12
2014-07-01T15:32:07.607Z,31.82
2014-07-01T15:33:12.593Z,32.46
2014-07-01T15:34:17.282Z,32.29
2014-07-01T15:35:21.988Z,33.04
2014-07-01T15:36:26.990Z,32.74
2014-07-01T15:37:31.678Z,32.54
2014-07-01T15:38:36.369Z,31.84
2014-07-01T15:39:41.062Z,32.67
2014-07-01T15:40:45.752Z,32.46
2014-07-01T15:41:50.754Z,32.45
2014-07-01T15:42:55.443Z,33.06
2014-07-01T15:44:00.430Z,33.01
2014-07-01T15:45:05.119Z,33.06
2014-07-01T15:46:09.809Z,33
2014-07-01T15:47:14.795Z,33.35
2014-07-01T15:48:19.485Z,33.46
2014-07-01T15:49:24.190Z,33.97
2014-07-01T15:50:28.879Z,33.26
2014-07-01T15:51:33.585Z,33.8
2014-07-01T15:52:38.274Z,33.72
2014-07-01T15:53:42.964Z,32.84
2014-07-01T15:54:47.654Z,33.2
2014-07-01T15:55:52.343Z,33.2
2014-07-01T15:56:57.048Z,33.79
2014-07-01T15:58:02.035Z,33.72
2014-07-01T15:59:06.725Z,33.5
2014-07-01T16:00:11.414Z,33.22
2014-07-01T16:01:16.119Z,34.08
2014-07-01T16:02:20.809Z,34.56
2014-07-01T16:03:25.498Z,33.73
2014-07-01T16:04:30.203Z,34.07
2014-07-01T16:05:35.189Z,34
2014-07-01T16:06:39.879Z,33.67
2014-07-01T16:07:44.569Z,33.82
2014-07-01T16:08:49.571Z,34.06
2014-07-01T16:09:54.261Z,33.77
2014-07-01T16:10:58.950Z,33.88
2014-07-01T16:12:03.937Z,32.45
2014-07-01T16:13:08.627Z,33.09
2014-07-01T16:14:13.316Z,33.69
2014-07-01T16:15:18.005Z,33.7
2014-07-01T16:16:22.710Z,32.43
2014-07-01T16:17:27.400Z,33.32
2014-07-01T16:18:32.089Z,33.68
2014-07-01T16:19:36.779Z,33.39
2014-07-01T16:20:41.469Z,32.7
2014-07-01T16:21:46.159Z,32.71
2014-07-01T16:22:50.848Z,33.06
2014-07-01T16:23:55.538Z,33.39
2014-07-01T16:25:00.227Z,33.2
2014-07-01T16:26:04.916Z,33.14
2014-07-01T16:27:09.622Z,33.15
2014-07-01T16:28:14.608Z,33.34
2014-07-01T16:29:19.298Z,33.75
2014-07-01T16:30:24.300Z,33.62
2014-07-01T16:31:28.989Z,33.84
2014-07-01T16:32:33.679Z,33.16
2014-07-01T16:33:38.681Z,33.67
2014-07-01T16:34:43.371Z,33.47
2014-07-01T16:35:48.060Z,33.22
2014-07-01T16:36:52.750Z,33.39
2014-07-01T16:37:57.455Z,33.99
2014-07-01T16:39:02.145Z,33.36
2014-07-01T16:40:06.834Z,33.35
2014-07-01T16:41:11.524Z,33.55
2014-07-01T16:42:16.213Z,33.79
2014-07-01T16:43:20.903Z,34.46
2014-07-01T16:44:25.609Z,34.29
2014-07-01T16:45:30.594Z,33.84
2014-07-01T16:46:35.285Z,33.93
2014-07-01T16:47:39.974Z,34.38
2014-07-01T16:48:44.960Z,34.31
2014-07-01T16:49:49.650Z,33.95
2014-07-01T16:50:54.339Z,35.22
2014-07-01T16:51:59.029Z,34.34
2014-07-01T16:53:03.719Z,34.12
2014-07-01T16:54:08.408Z,34.29
2014-07-01T16:55:13.113Z,34.85
2014-07-01T16:56:17.800Z,34.57
2014-07-01T16:57:22.506Z,35.03
2014-07-01T16:58:27.492Z,34.55
2014-07-01T16:59:32.182Z,34.16
2014-07-01T17:00:36.183Z,34.25
2014-07-01T17:01:40.873Z,34.65
2014-07-01T17:02:45.579Z,34.72
2014-07-01T17:03:50.268Z,34.1
2014-07-01T17:04:54.957Z,35.12
2014-07-01T17:05:59.960Z,35.86
2014-07-01T17:07:04.648Z,35.79
2014-07-01T17:08:09.339Z,35.67
2014-07-01T17:09:14.324Z,35.23
2014-07-01T17:10:19.046Z,35.21
2014-07-01T17:11:23.735Z,34.46
2014-07-01T17:12:28.425Z,35.32
2014-07-01T17:13:33.114Z,34.57
2014-07-01T17:14:37.804Z,34.83
2014-07-01T17:15:42.790Z,34.84
2014-07-01T17:16:47.495Z,34.91
2014-07-01T17:17:52.482Z,34.89
2014-07-01T17:18:57.172Z,35.51
2014-07-01T17:20:01.861Z,35.51
2014-07-01T17:21:06.550Z,35.57
2014-07-01T17:22:11.240Z,35.33
2014-07-01T17:23:15.945Z,34.71
2014-07-01T17:24:20.635Z,35.05
2014-07-01T17:25:25.325Z,35.01
2014-07-01T17:26:30.014Z,35.52
2014-07-01T17:27:34.719Z,35.28
2014-07-01T17:28:39.409Z,34.9
2014-07-01T17:29:44.099Z,35.44
2014-07-01T17:30:48.788Z,35.16
2014-07-01T17:31:53.478Z,35.09
2014-07-01T17:32:58.167Z,35.81
2014-07-01T17:34:02.873Z,35.59
2014-07-01T17:35:07.563Z,35.38
2014-07-01T17:36:12.252Z,35.86
2014-07-01T17:37:16.957Z,35.53
2014-07-01T17:38:21.647Z,35.37
2014-07-01T17:39:26.352Z,35.4
2014-07-01T17:40:31.041Z,35.82
2014-07-01T17:41:35.731Z,35.17
2014-07-01T17:42:40.717Z,35.84
2014-07-01T17:43:45.704Z,35.69
2014-07-01T17:44:50.393Z,35.87
2014-07-01T17:45:55.084Z,36.36
2014-07-01T17:46:59.772Z,36.01
2014-07-01T17:48:04.463Z,36.77
2014-07-01T17:49:09.151Z,37.12
2014-07-01T17:50:13.857Z,36.25
2014-07-01T17:51:18.547Z,36.91
2014-07-01T17:52:23.236Z,36.01
2014-07-01T17:53:27.926Z,36.23
2014-07-01T17:54:32.615Z,36.06
2014-07-01T17:55:37.305Z,36.4
2014-07-01T17:56:41.994Z,36.16
2014-07-01T17:57:46.684Z,35.92
2014-07-01T17:58:51.389Z,36.58
2014-07-01T17:59:56.078Z,36.37
2014-07-01T18:01:00.768Z,37.05
2014-07-01T18:02:05.754Z,36.04
2014-07-01T18:03:10.460Z,36.07
2014-07-01T18:04:15.150Z,36.28
2014-07-01T18:05:19.839Z,36.31
2014-07-01T18:06:24.544Z,36.65
2014-07-01T18:07:29.233Z,36.62
2014-07-01T18:08:33.923Z,36.56
2014-07-01T18:09:38.613Z,36.77
2014-07-01T18:10:43.302Z,36.44
2014-07-01T18:11:48.289Z,36.3
2014-07-01T18:12:52.994Z,36.56
2014-07-01T18:13:57.683Z,36.8
2014-07-01T18:15:02.373Z,37.18
2014-07-01T18:16:07.062Z,37.23
2014-07-01T18:17:11.752Z,37.38
2014-07-01T18:18:16.441Z,37.72
2014-07-01T18:19:21.131Z,37.03
2014-07-01T18:20:25.821Z,36.8
2014-07-01T18:21:30.510Z,36.9
2014-07-01T18:22:35.199Z,36.77
2014-07-01T18:23:39.889Z,37.11
2014-07-01T18:24:44.595Z,36.61
2014-07-01T18:25:49.285Z,36.55
2014-07-01T18:26:53.974Z,36.1
2014-07-01T18:27:58.664Z,36.13
2014-07-01T18:29:03.650Z,36.4
2014-07-01T18:30:08.339Z,36.06
2014-07-01T18:31:13.029Z,36.95
2014-07-01T18:32:17.718Z,36.47
2014-07-01T18:33:22.424Z,36.03
2014-07-01T18:34:27.113Z,36.2
2014-07-01T18:35:31.803Z,36.44
2014-07-01T18:36:36.493Z,37.75
2014-07-01T18:37:41.197Z,36.85
2014-07-01T18:38:46.184Z,36.45
2014-07-01T18:39:50.873Z,36.64
2014-07-01T18:40:55.564Z,36.64
2014-07-01T18:42:00.269Z,36.61
2014-07-01T18:43:04.959Z,37.46
2014-07-01T18:44:09.648Z,37.25
2014-07-01T18:45:14.337Z,37.42
2014-07-01T18:46:19.027Z,37.9
2014-07-01T18:47:23.716Z,37.56
2014-07-01T18:48:28.406Z,37.99
2014-07-01T18:49:33.095Z,38.26
2014-07-01T18:50:37.786Z,37.54
2014-07-01T18:51:42.501Z,37.24
2014-07-01T18:52:47.248Z,37.37
2014-07-01T18:53:51.981Z,37.19
2014-07-01T18:54:56.713Z,37.64
2014-07-01T18:56:01.743Z,37.81
2014-07-01T18:57:06.448Z,38.52
2014-07-01T18:58:11.153Z,37.53
2014-07-01T18:59:15.858Z,37.51
2014-07-01T19:00:20.563Z,37.77
2014-07-01T19:01:25.264Z,38.3
2014-07-01T19:02:29.959Z,38.03
2014-07-01T19:03:34.653Z,37.96
2014-07-01T19:04:39.349Z,38.37
2014-07-01T19:05:44.043Z,38.1
2014-07-01T19:06:48.736Z,38.37
2014-07-01T19:07:53.428Z,38.11
2014-07-01T19:08:58.135Z,38
2014-07-01T19:10:03.124Z,38.31
2014-07-01T19:11:08.112Z,38.47
2014-07-01T19:12:12.802Z,38.41
2014-07-01T19:13:17.491Z,38.51
2014-07-01T19:14:22.182Z,39.18
2014-07-01T19:15:26.872Z,39.92
2014-07-01T19:16:31.562Z,40.27
2014-07-01T19:17:36.548Z,40.72
2014-07-01T19:18:41.534Z,40.58
2014-07-01T19:19:46.521Z,40.25
2014-07-01T19:20:51.508Z,40.02
2014-07-01T19:21:56.495Z,40.06
2014-07-01T19:23:01.184Z,40.02
2014-07-01T19:24:05.873Z,40.75
2014-07-01T19:25:10.565Z,41.02
2014-07-01T19:26:15.254Z,40.68
2014-07-01T19:27:19.961Z,40.86
2014-07-01T19:28:24.649Z,41.27
2014-07-01T19:29:29.339Z,41.32
2014-07-01T19:30:34.028Z,41.55
2014-07-01T19:31:38.718Z,41.28
2014-07-01T19:32:43.704Z,41.48
2014-07-01T19:33:48.690Z,41.37
2014-07-01T19:34:53.677Z,40.81
2014-07-01T19:35:58.366Z,40.7
2014-07-01T19:37:03.353Z,40.92
2014-07-01T19:38:08.057Z,40.95
2014-07-01T19:39:12.746Z,40.76
2014-07-01T19:40:17.436Z,40.68
2014-07-01T19:41:22.125Z,40.92
2014-07-01T19:42:26.206Z,41.16
2014-07-01T19:43:30.895Z,41.3
2014-07-01T19:44:35.585Z,40.45
2014-07-01T19:45:40.276Z,40.62
2014-07-01T19:46:44.966Z,40.6
2014-07-01T19:47:49.656Z,40.22
2014-07-01T19:48:54.344Z,40.38
2014-07-01T19:49:59.035Z,40.69
2014-07-01T19:51:03.724Z,40.56
2014-07-01T19:52:08.710Z,41.14
2014-07-01T19:53:13.399Z,40.73
2014-07-01T19:54:18.105Z,40.97
2014-07-01T19:55:22.794Z,40.96
2014-07-01T19:56:27.483Z,41.23
2014-07-01T19:57:32.470Z,41.27
2014-07-01T19:58:37.456Z,41.04
2014-07-01T19:59:42.442Z,41.35
2014-07-01T20:00:47.132Z,41.82
2014-07-01T20:01:51.821Z,41.94
2014-07-01T20:02:56.511Z,41.93
2014-07-01T20:04:01.200Z,42.77
2014-07-01T20:05:05.890Z,42.7
2014-07-01T20:06:10.579Z,43.62
2014-07-01T20:07:15.269Z,41.57
2014-07-01T20:08:20.552Z,41.91
2014-07-01T20:09:25.541Z,43.37
2014-07-01T20:10:30.230Z,42.73
2014-07-01T20:11:34.232Z,42.52
2014-07-01T20:12:39.234Z,42.31
2014-07-01T20:13:44.219Z,42.14
2014-07-01T20:14:48.909Z,42.6
2014-07-01T20:15:53.896Z,42.13
2014-07-01T20:16:58.586Z,42.63
2014-07-01T20:18:03.275Z,41.81
2014-07-01T20:19:07.965Z,42.21
2014-07-01T20:20:12.951Z,42.24
2014-07-01T20:21:18.234Z,41.54
2014-07-01T20:22:23.220Z,41.92
2014-07-01T20:23:27.895Z,42.03
2014-07-01T20:24:32.584Z,41.93
2014-07-01T20:25:37.274Z,42.47
2014-07-01T20:26:41.962Z,42.45
2014-07-01T20:27:46.653Z,42.12
2014-07-01T20:28:51.341Z,41.88
2014-07-01T20:29:56.329Z,42.51
2014-07-01T20:31:01.020Z,42.58
2014-07-01T20:32:05.990Z,42.37
2014-07-01T20:33:10.977Z,42.25
2014-07-01T20:34:15.666Z,42.22
2014-07-01T20:35:20.341Z,41.99
2014-07-01T20:36:25.343Z,42.37
2014-07-01T20:37:30.032Z,42.22
2014-07-01T20:38:35.003Z,42.56
2014-07-01T20:39:39.692Z,42.21
2014-07-01T20:40:44.679Z,42.6
2014-07-01T20:41:49.369Z,42.77
2014-07-01T20:42:54.042Z,42.27
2014-07-01T20:43:58.733Z,42.58
2014-07-01T20:45:03.422Z,42.64
2014-07-01T20:46:08.095Z,41.97
2014-07-01T20:47:13.082Z,42.34
2014-07-01T20:48:17.771Z,42.55
2014-07-01T20:49:22.758Z,41.91
2014-07-01T20:50:27.745Z,42.31
2014-07-01T20:51:32.434Z,41.9
2014-07-01T20:52:37.124Z,41.98
2014-07-01T20:53:42.110Z,42.07
2014-07-01T20:54:46.799Z,41.69
2014-07-01T20:55:51.489Z,42.13
2014-07-01T20:56:56.178Z,41.79
2014-07-01T20:58:00.869Z,41.99
2014-07-01T20:59:05.855Z,42.49
2014-07-01T21:00:10.545Z,42.13
2014-07-01T21:01:15.234Z,42.14
2014-07-01T21:02:19.908Z,42.21
2014-07-01T21:03:24.598Z,42.74
2014-07-01T21:04:29.584Z,43.16
2014-07-01T21:05:34.258Z,42.48
2014-07-01T21:06:38.947Z,42.66
2014-07-01T21:07:43.934Z,42.33
2014-07-01T21:08:48.608Z,42.1
2014-07-01T21:09:53.297Z,42.01
2014-07-01T21:10:57.299Z,42.58
2014-07-01T21:12:02.286Z,41.97
2014-07-01T21:13:06.975Z,42.19
2014-07-01T21:14:11.649Z,42.27
2014-07-01T21:15:16.339Z,42.65
2014-07-01T21:16:21.029Z,42.04
2014-07-01T21:17:25.014Z,42.37
2014-07-01T21:18:29.704Z,42.23
2014-07-01T21:19:34.691Z,42.46
2014-07-01T21:20:39.380Z,42.75
2014-07-01T21:21:44.070Z,42.57
2014-07-01T21:22:48.744Z,42.5